createdAt,value
2024-05-09T00:00:43.994Z,15.99
2024-05-09T00:03:31.829Z,15.97
2024-05-09T00:06:02.556Z,15.92
2024-05-09T00:08:30.045Z,15.84
2024-05-09T00:10:58.004Z,15.79
2024-05-09T00:13:25.579Z,15.76
2024-05-09T00:15:53.222Z,15.71
2024-05-09T00:18:20.670Z,15.65
2024-05-09T00:20:48.747Z,15.64
2024-05-09T00:23:19.970Z,15.60
2024-05-09T00:25:47.865Z,15.57
2024-05-09T00:28:15.212Z,15.57
2024-05-09T00:30:43.985Z,15.56
2024-05-09T00:33:11.924Z,15.57
2024-05-09T00:35:41.509Z,15.57
2024-05-09T00:38:09.634Z,15.56
2024-05-09T00:40:42.424Z,15.56
2024-05-09T00:43:12.260Z,15.55
2024-05-09T00:45:42.449Z,15.49
2024-05-09T00:48:11.569Z,15.49
2024-05-09T00:50:42.320Z,15.46
2024-05-09T00:53:11.997Z,15.46
2024-05-09T00:55:43.006Z,15.43
2024-05-09T00:58:12.818Z,15.39
2024-05-09T01:00:41.633Z,15.35
2024-05-09T01:03:11.842Z,15.28
2024-05-09T01:05:41.750Z,15.30
2024-05-09T01:08:10.755Z,15.30
2024-05-09T01:10:44.192Z,15.25
2024-05-09T01:13:14.333Z,15.23
2024-05-09T01:15:43.097Z,15.22
2024-05-09T01:18:13.158Z,15.17
2024-05-09T01:20:44.217Z,15.16
2024-05-09T01:23:16.564Z,15.12
2024-05-09T01:25:45.763Z,15.14
2024-05-09T01:28:14.151Z,15.11
2024-05-09T01:30:41.987Z,15.11
2024-05-09T01:33:11.232Z,15.12
2024-05-09T01:35:42.009Z,15.07
2024-05-09T01:38:12.924Z,15.02
2024-05-09T01:40:43.951Z,14.99
2024-05-09T01:43:12.255Z,14.89
2024-05-09T01:45:40.369Z,14.97
2024-05-09T01:48:08.729Z,14.93
2024-05-09T01:50:40.253Z,14.89
2024-05-09T01:53:10.446Z,14.75
2024-05-09T01:55:38.574Z,14.83
2024-05-09T01:58:09.501Z,14.85
2024-05-09T02:00:41.285Z,14.87
2024-05-09T02:03:13.932Z,14.87
2024-05-09T02:05:45.716Z,14.91
2024-05-09T02:08:18.142Z,14.86
2024-05-09T02:10:58.711Z,14.75
2024-05-09T02:13:34.686Z,14.81
2024-05-09T02:16:02.323Z,14.82
2024-05-09T02:18:29.866Z,14.85
2024-05-09T02:20:57.570Z,14.78
2024-05-09T02:23:25.238Z,14.83
2024-05-09T02:25:53.049Z,14.86
2024-05-09T02:28:21.112Z,14.92
2024-05-09T02:30:51.582Z,14.97
2024-05-09T02:33:19.020Z,15.02
2024-05-09T02:35:46.645Z,15.06
2024-05-09T02:38:14.114Z,15.00
2024-05-09T02:40:41.789Z,15.00
2024-05-09T02:43:12.299Z,15.04
2024-05-09T02:45:40.996Z,15.11
2024-05-09T02:48:14.048Z,15.07
2024-05-09T02:50:44.422Z,15.19
2024-05-09T02:53:14.709Z,15.17
2024-05-09T02:55:43.162Z,15.25
2024-05-09T02:58:11.200Z,15.26
2024-05-09T03:00:41.982Z,15.27
2024-05-09T03:03:15.271Z,15.30
2024-05-09T03:05:45.165Z,15.30
2024-05-09T03:08:13.078Z,15.30
2024-05-09T03:10:41.008Z,15.30
2024-05-09T03:13:08.764Z,15.33
2024-05-09T03:15:36.882Z,15.37
2024-05-09T03:18:05.877Z,15.40
2024-05-09T03:20:38.322Z,15.40
2024-05-09T03:23:08.138Z,15.41
2024-05-09T03:25:37.158Z,15.43
2024-05-09T03:28:05.196Z,15.46
2024-05-09T03:30:40.163Z,15.48
2024-05-09T03:33:10.886Z,15.46
2024-05-09T03:35:41.997Z,15.48
2024-05-09T03:38:09.703Z,15.53
2024-05-09T03:40:44.280Z,15.51
2024-05-09T03:43:12.597Z,15.53
2024-05-09T03:45:40.350Z,15.56
2024-05-09T03:48:08.822Z,15.58
2024-05-09T03:50:37.360Z,15.62
2024-05-09T03:53:10.889Z,15.59
2024-05-09T03:55:40.172Z,15.62
2024-05-09T03:58:08.404Z,15.66
2024-05-09T04:00:39.142Z,15.74
2024-05-09T04:03:10.427Z,15.75
2024-05-09T04:05:41.327Z,15.80
2024-05-09T04:08:14.359Z,15.79
2024-05-09T04:10:42.300Z,15.83
2024-05-09T04:13:10.220Z,15.64
2024-05-09T04:15:38.122Z,15.71
2024-05-09T04:18:06.340Z,15.74
2024-05-09T04:20:39.425Z,15.78
2024-05-09T04:23:14.575Z,15.83
2024-05-09T04:25:44.580Z,15.88
2024-05-09T04:28:14.105Z,15.93
2024-05-09T04:30:42.753Z,15.97
2024-05-09T04:33:12.715Z,15.96
2024-05-09T04:35:42.857Z,15.98
2024-05-09T04:38:14.461Z,15.92
2024-05-09T04:40:42.953Z,16.03
2024-05-09T04:43:16.162Z,16.04
2024-05-09T04:45:44.201Z,16.11
2024-05-09T04:48:11.927Z,16.13
2024-05-09T04:50:40.155Z,16.28
2024-05-09T04:53:10.060Z,16.45
2024-05-09T04:55:41.675Z,16.60
2024-05-09T04:58:09.598Z,16.68
2024-05-09T05:00:39.181Z,16.69
2024-05-09T05:03:10.513Z,16.65
2024-05-09T05:05:41.327Z,16.72
2024-05-09T05:08:11.191Z,16.67
2024-05-09T05:10:42.157Z,16.61
2024-05-09T05:13:17.864Z,16.70
2024-05-09T05:15:47.989Z,16.75
2024-05-09T05:18:16.113Z,16.76
2024-05-09T05:20:45.155Z,16.79
2024-05-09T05:23:14.287Z,16.74
2024-05-09T05:25:47.769Z,16.77
2024-05-09T05:28:16.433Z,16.93
2024-05-09T05:30:44.426Z,17.20
2024-05-09T05:33:12.989Z,17.84
2024-05-09T05:35:42.091Z,19.02
2024-05-09T05:38:11.440Z,20.15
2024-05-09T05:40:40.542Z,21.16
2024-05-09T05:43:17.179Z,22.02
2024-05-09T05:45:45.028Z,22.42
2024-05-09T05:48:13.488Z,22.88
2024-05-09T05:50:41.469Z,23.15
2024-05-09T05:53:10.442Z,23.47
2024-05-09T05:55:40.179Z,23.46
2024-05-09T05:58:12.190Z,23.56
2024-05-09T06:00:41.450Z,23.93
2024-05-09T06:03:10.976Z,23.98
2024-05-09T06:05:40.636Z,24.02
2024-05-09T06:08:09.595Z,24.01
2024-05-09T06:10:40.588Z,23.92
2024-05-09T06:13:14.413Z,23.80
2024-05-09T06:15:42.733Z,23.90
2024-05-09T06:18:11.956Z,24.04
2024-05-09T06:20:43.244Z,24.29
2024-05-09T06:23:12.846Z,24.03
2024-05-09T06:25:42.052Z,23.43
2024-05-09T06:28:12.361Z,22.90
2024-05-09T06:30:42.497Z,22.29
2024-05-09T06:33:13.343Z,21.62
2024-05-09T06:35:43.493Z,21.67
2024-05-09T06:38:11.820Z,21.74
2024-05-09T06:40:42.822Z,21.92
2024-05-09T06:43:15.420Z,21.69
2024-05-09T06:45:47.174Z,21.62
2024-05-09T06:48:15.300Z,21.55
2024-05-09T06:50:43.030Z,21.53
2024-05-09T06:53:10.440Z,21.84
2024-05-09T06:55:38.321Z,22.08
2024-05-09T06:58:07.704Z,22.10
2024-05-09T07:00:40.940Z,21.97
2024-05-09T07:03:12.902Z,21.99
2024-05-09T07:05:42.859Z,21.90
2024-05-09T07:08:10.638Z,22.12
2024-05-09T07:10:38.736Z,22.19
2024-05-09T07:13:09.662Z,22.12
2024-05-09T07:15:40.886Z,22.01
2024-05-09T07:18:10.942Z,21.72
2024-05-09T07:20:39.088Z,21.74
2024-05-09T07:23:09.203Z,21.87
2024-05-09T07:25:37.030Z,21.73
2024-05-09T07:28:06.074Z,21.53
2024-05-09T07:30:34.994Z,21.63
2024-05-09T07:33:06.041Z,21.90
2024-05-09T07:35:34.231Z,22.03
2024-05-09T07:38:02.026Z,22.28
2024-05-09T07:40:35.813Z,22.28
2024-05-09T07:43:05.048Z,22.02
2024-05-09T07:53:36.310Z,22.28
2024-05-09T07:55:56.226Z,21.89
2024-05-09T07:58:27.705Z,21.73
2024-05-09T08:00:55.891Z,21.69
2024-05-09T08:03:26.022Z,21.96
2024-05-09T08:05:54.588Z,22.26
2024-05-09T08:08:21.912Z,22.33
2024-05-09T08:10:50.425Z,22.46
2024-05-09T08:13:18.251Z,22.16
2024-05-09T08:15:46.136Z,21.83
2024-05-09T08:18:13.570Z,21.62
2024-05-09T08:20:49.947Z,21.47
2024-05-09T08:23:17.930Z,21.33
2024-05-09T08:25:45.631Z,21.61
2024-05-09T08:28:13.255Z,21.98
2024-05-09T08:30:41.343Z,22.26
2024-05-09T08:33:08.899Z,22.10
2024-05-09T08:35:36.767Z,21.96
2024-05-09T08:38:07.659Z,22.04
2024-05-09T08:40:37.644Z,22.30
2024-05-09T08:43:12.537Z,22.70
2024-05-09T08:45:45.217Z,22.51
2024-05-09T08:48:15.484Z,22.32
2024-05-09T08:50:46.648Z,22.16
2024-05-09T08:53:16.581Z,22.30
2024-05-09T08:55:46.188Z,22.27
2024-05-09T08:58:18.267Z,22.30
2024-05-09T09:00:47.244Z,22.62
2024-05-09T09:03:15.586Z,22.75
2024-05-09T09:05:58.535Z,22.96
2024-05-09T09:08:29.029Z,23.28
2024-05-09T09:10:58.887Z,23.50
2024-05-09T09:13:26.680Z,23.74
2024-05-09T09:15:58.892Z,23.75
2024-05-09T09:18:28.018Z,23.86
2024-05-09T09:20:55.954Z,23.80
2024-05-09T09:23:23.380Z,23.54
2024-05-09T09:25:53.972Z,23.32
2024-05-09T09:28:23.316Z,23.11
2024-05-09T09:30:51.530Z,22.97
2024-05-09T09:33:19.106Z,23.00
2024-05-09T09:35:47.336Z,23.05
2024-05-09T09:38:23.025Z,23.03
2024-05-09T09:40:53.624Z,23.14
2024-05-09T09:43:22.596Z,23.00
2024-05-09T09:45:53.024Z,23.01
2024-05-09T09:48:21.942Z,23.14
2024-05-09T09:50:51.629Z,23.51
2024-05-09T09:53:19.470Z,23.54
2024-05-09T09:55:48.330Z,23.48
2024-05-09T09:58:18.450Z,23.30
2024-05-09T10:00:46.662Z,23.02
2024-05-09T10:03:14.212Z,23.06
2024-05-09T10:05:45.343Z,22.98
2024-05-09T10:08:17.961Z,23.08
2024-05-09T10:10:50.535Z,23.33
2024-05-09T10:13:21.026Z,23.46
2024-05-09T10:15:53.497Z,23.21
2024-05-09T10:18:27.274Z,22.92
2024-05-09T10:20:57.792Z,23.02
2024-05-09T10:23:26.642Z,23.34
2024-05-09T10:25:58.944Z,23.27
2024-05-09T10:28:30.023Z,23.23
2024-05-09T10:31:03.813Z,23.17
2024-05-09T10:33:38.658Z,22.99
2024-05-09T10:36:11.740Z,22.83
2024-05-09T10:38:40.539Z,22.95
2024-05-09T10:41:09.010Z,22.95
2024-05-09T10:43:41.364Z,22.75
2024-05-09T10:46:10.517Z,22.76
2024-05-09T10:48:39.728Z,22.86
2024-05-09T10:51:08.946Z,22.93
2024-05-09T10:53:40.764Z,22.84
2024-05-09T10:56:09.167Z,22.68
2024-05-09T10:58:39.437Z,22.66
2024-05-09T11:01:09.195Z,22.77
2024-05-09T11:03:37.416Z,22.77
2024-05-09T11:06:07.779Z,22.76
2024-05-09T11:08:36.301Z,22.63
2024-05-09T11:11:07.776Z,22.60
2024-05-09T11:13:44.472Z,22.51
2024-05-09T11:16:19.290Z,22.55
2024-05-09T11:18:55.924Z,22.51
2024-05-09T11:21:27.407Z,22.20
2024-05-09T11:23:56.975Z,22.17
2024-05-09T11:26:29.674Z,21.99
2024-05-09T11:28:59.772Z,21.85
2024-05-09T11:31:27.832Z,21.90
2024-05-09T11:34:05.296Z,21.78
2024-05-09T11:36:33.158Z,21.71
2024-05-09T11:39:03.110Z,21.66
2024-05-09T11:41:35.963Z,21.56
2024-05-09T11:44:06.390Z,21.40
2024-05-09T11:46:34.306Z,21.37
2024-05-09T11:49:01.844Z,21.50
2024-05-09T11:51:29.748Z,21.66
2024-05-09T11:53:57.090Z,21.86
2024-05-09T11:56:26.205Z,22.02
2024-05-09T11:58:53.333Z,22.16
2024-05-09T12:01:26.943Z,22.05
2024-05-09T12:03:56.343Z,22.12
2024-05-09T12:06:25.331Z,22.12
2024-05-09T12:08:52.676Z,22.06
2024-05-09T12:11:23.009Z,21.97
2024-05-09T12:13:56.014Z,21.90
2024-05-09T12:16:26.725Z,21.92
2024-05-09T12:18:57.335Z,21.98
2024-05-09T12:21:25.178Z,21.94
2024-05-09T12:23:52.690Z,22.09
2024-05-09T12:26:22.913Z,22.12
2024-05-09T12:28:50.335Z,22.20
2024-05-09T12:31:18.259Z,22.09
2024-05-09T12:33:51.661Z,22.09
2024-05-09T12:36:20.230Z,22.11
2024-05-09T12:38:49.954Z,22.35
2024-05-09T12:41:17.833Z,22.54
2024-05-09T12:43:45.150Z,22.60
2024-05-09T12:46:16.069Z,22.41
2024-05-09T12:48:43.498Z,22.48
2024-05-09T12:51:14.023Z,22.49
2024-05-09T12:53:43.698Z,22.55
2024-05-09T12:56:13.976Z,22.60
2024-05-09T12:58:43.041Z,22.63
2024-05-09T13:01:10.808Z,22.65
2024-05-09T13:03:41.034Z,22.68
2024-05-09T13:06:09.137Z,22.65
2024-05-09T13:08:41.258Z,22.56
2024-05-09T13:11:09.106Z,22.49
2024-05-09T13:13:39.370Z,22.40
2024-05-09T13:16:08.375Z,22.60
2024-05-09T13:18:39.293Z,22.74
2024-05-09T13:21:10.841Z,22.80
2024-05-09T13:23:41.245Z,22.82
2024-05-09T13:26:09.153Z,22.68
2024-05-09T13:28:36.732Z,22.40
2024-05-09T13:31:04.876Z,22.30
2024-05-09T13:33:35.322Z,22.24
2024-05-09T13:36:03.361Z,22.32
2024-05-09T13:38:33.653Z,22.32
2024-05-09T13:41:04.330Z,22.23
2024-05-09T13:43:31.762Z,22.19
2024-05-09T13:45:59.619Z,22.34
2024-05-09T13:48:27.162Z,22.65
2024-05-09T13:50:55.062Z,22.62
2024-05-09T13:53:22.429Z,22.65
2024-05-09T13:55:51.888Z,22.51
2024-05-09T13:58:23.671Z,22.46
2024-05-09T14:00:52.022Z,22.59
2024-05-09T14:03:22.008Z,22.71
2024-05-09T14:05:51.714Z,22.84
2024-05-09T14:08:21.487Z,22.83
2024-05-09T14:10:49.777Z,22.81
2024-05-09T14:13:17.681Z,22.67
2024-05-09T14:15:49.245Z,22.43
2024-05-09T14:18:17.455Z,22.58
2024-05-09T14:20:45.023Z,22.61
2024-05-09T14:23:15.115Z,22.70
2024-05-09T14:25:44.069Z,22.80
2024-05-09T14:28:14.458Z,22.73
2024-05-09T14:30:45.658Z,22.69
2024-05-09T14:33:25.368Z,22.68
2024-05-09T14:35:53.700Z,22.59
2024-05-09T14:38:22.293Z,22.48
2024-05-09T14:40:50.833Z,22.30
2024-05-09T14:43:20.276Z,22.49
2024-05-09T14:45:53.715Z,22.48
2024-05-09T14:48:24.147Z,22.35
2024-05-09T14:50:52.104Z,22.29
2024-05-09T14:53:19.510Z,22.17
2024-05-09T14:55:49.482Z,22.14
2024-05-09T14:58:17.517Z,22.15
2024-05-09T15:00:51.337Z,22.02
2024-05-09T15:03:20.578Z,22.03
2024-05-09T15:05:57.472Z,22.02
2024-05-09T15:08:26.695Z,21.86
2024-05-09T15:10:57.539Z,21.86
2024-05-09T15:13:27.449Z,21.76
2024-05-09T15:15:56.113Z,21.68
2024-05-09T15:18:23.804Z,21.63
2024-05-09T15:20:57.463Z,21.66
2024-05-09T15:23:25.702Z,21.64
2024-05-09T15:28:40.702Z,21.38
2024-05-09T15:31:10.957Z,21.65
2024-05-09T15:33:38.286Z,21.60
2024-05-09T15:36:11.631Z,21.71
2024-05-09T15:38:43.209Z,21.73
2024-05-09T15:41:13.462Z,21.65
2024-05-09T15:43:40.824Z,21.56
2024-05-09T15:46:08.966Z,21.59
2024-05-09T15:48:36.445Z,21.60
2024-05-09T15:51:04.587Z,21.48
2024-05-09T15:53:37.505Z,21.58
2024-05-09T15:56:06.229Z,21.52
2024-05-09T15:58:33.511Z,21.59
2024-05-09T16:01:01.577Z,21.59
2024-05-09T16:03:29.089Z,21.43
2024-05-09T16:06:01.270Z,21.40
2024-05-09T16:08:28.779Z,21.26
2024-05-09T16:10:59.227Z,21.31
2024-05-09T16:13:28.295Z,21.32
2024-05-09T16:15:56.066Z,21.33
2024-05-09T16:18:24.113Z,21.29
2024-05-09T16:20:59.452Z,21.32
2024-05-09T16:23:27.304Z,21.28
2024-05-09T16:25:55.297Z,21.27
2024-05-09T16:28:27.038Z,21.25
2024-05-09T16:30:54.691Z,21.23
2024-05-09T16:33:25.728Z,21.19
2024-05-09T16:35:56.101Z,21.17
2024-05-09T16:38:24.083Z,21.17
2024-05-09T16:40:51.677Z,21.13
2024-05-09T16:43:19.849Z,21.10
2024-05-09T16:45:51.304Z,20.93
2024-05-09T16:48:19.484Z,20.90
2024-05-09T16:50:46.909Z,20.79
2024-05-09T16:53:14.791Z,20.55
2024-05-09T16:55:42.160Z,20.67
2024-05-09T16:58:12.409Z,20.65
2024-05-09T17:00:43.272Z,20.58
2024-05-09T17:03:16.091Z,20.56
2024-05-09T17:05:46.434Z,20.55
2024-05-09T17:08:15.832Z,20.52
2024-05-09T17:10:44.793Z,20.51
2024-05-09T17:13:12.782Z,20.42
2024-05-09T17:15:40.861Z,20.45
2024-05-09T17:18:10.221Z,20.45
2024-05-09T17:20:42.357Z,20.43
2024-05-09T17:23:13.393Z,20.31
2024-05-09T17:25:42.282Z,20.20
2024-05-09T17:28:10.701Z,20.37
2024-05-09T17:30:40.110Z,20.34
2024-05-09T17:33:10.919Z,20.31
2024-05-09T17:35:50.190Z,20.28
2024-05-09T17:38:18.954Z,20.26
2024-05-09T17:40:46.229Z,20.23
2024-05-09T17:43:14.086Z,20.23
2024-05-09T17:45:42.314Z,20.18
2024-05-09T17:48:13.558Z,20.17
2024-05-09T17:50:44.476Z,20.22
2024-05-09T17:53:12.313Z,20.26
2024-05-09T17:55:39.955Z,20.20
2024-05-09T17:58:08.165Z,20.26
2024-05-09T18:00:39.667Z,20.27
2024-05-09T18:03:13.897Z,20.25
2024-05-09T18:05:45.974Z,20.18
2024-05-09T18:08:14.069Z,20.13
2024-05-09T18:10:42.307Z,20.11
2024-05-09T18:13:18.982Z,20.11
2024-05-09T18:15:48.923Z,20.05
2024-05-09T18:18:17.963Z,19.93
2024-05-09T18:20:48.124Z,19.92
2024-05-09T18:23:18.289Z,19.95
2024-05-09T18:25:49.027Z,19.86
2024-05-09T18:28:17.455Z,19.97
2024-05-09T18:30:46.496Z,19.99
2024-05-09T18:33:14.650Z,20.02
2024-05-09T18:35:43.205Z,20.04
2024-05-09T18:38:13.964Z,19.97
2024-05-09T18:40:47.007Z,20.07
2024-05-09T18:43:16.889Z,20.11
2024-05-09T18:45:44.917Z,20.08
2024-05-09T18:48:13.879Z,19.99
2024-05-09T18:50:41.827Z,19.92
2024-05-09T18:53:18.988Z,19.78
2024-05-09T18:55:50.439Z,19.72
2024-05-09T18:58:18.477Z,19.26
2024-05-09T19:00:50.202Z,19.48
2024-05-09T19:03:19.666Z,19.28
2024-05-09T19:05:47.443Z,19.23
2024-05-09T19:08:18.642Z,18.97
2024-05-09T19:10:48.305Z,18.95
2024-05-09T19:13:16.634Z,18.94
2024-05-09T19:15:46.907Z,18.82
2024-05-09T19:18:17.230Z,18.81
2024-05-09T19:20:44.879Z,18.75
2024-05-09T19:23:13.157Z,18.71
2024-05-09T19:25:43.446Z,18.58
2024-05-09T19:28:11.283Z,18.53
2024-05-09T19:30:41.753Z,18.48
2024-05-09T19:33:13.347Z,18.44
2024-05-09T19:35:42.110Z,18.32
2024-05-09T19:38:09.946Z,18.23
2024-05-09T19:40:37.356Z,17.88
2024-05-09T19:43:08.267Z,18.03
2024-05-09T19:45:36.551Z,17.88
2024-05-09T19:48:06.288Z,17.71
2024-05-09T19:50:41.371Z,17.68
2024-05-09T19:53:12.774Z,17.65
2024-05-09T19:55:40.325Z,17.62
2024-05-09T19:58:11.836Z,17.57
2024-05-09T20:00:42.259Z,17.41
2024-05-09T20:03:12.451Z,17.28
2024-05-09T20:05:40.476Z,17.21
2024-05-09T20:08:08.448Z,17.09
2024-05-09T20:10:36.753Z,17.02
2024-05-09T20:13:06.801Z,16.88
2024-05-09T20:15:38.675Z,16.98
2024-05-09T20:18:13.450Z,16.94
2024-05-09T20:21:00.122Z,16.83
2024-05-09T20:23:29.205Z,16.94
2024-05-09T20:25:56.649Z,16.88
2024-05-09T20:28:24.494Z,16.83
2024-05-09T20:30:55.092Z,16.92
2024-05-09T20:33:22.834Z,16.96
2024-05-09T20:35:55.432Z,16.93
2024-05-09T20:38:24.196Z,16.96
2024-05-09T20:40:51.664Z,16.96
2024-05-09T20:43:19.696Z,17.00
2024-05-09T20:45:47.089Z,16.96
2024-05-09T20:48:17.745Z,16.97
2024-05-09T20:50:47.435Z,16.98
2024-05-09T20:53:15.663Z,16.96
2024-05-09T20:55:44.544Z,16.98
2024-05-09T20:58:13.325Z,16.83
2024-05-09T21:00:44.189Z,16.90
2024-05-09T21:03:17.502Z,16.90
2024-05-09T21:05:45.887Z,16.86
2024-05-09T21:08:14.134Z,16.77
2024-05-09T21:10:41.774Z,16.74
2024-05-09T21:13:09.761Z,16.64
2024-05-09T21:15:37.204Z,16.64
2024-05-09T21:18:05.423Z,16.65
2024-05-09T21:20:37.523Z,16.48
2024-05-09T21:23:05.760Z,16.50
2024-05-09T21:25:33.130Z,16.40
2024-05-09T21:28:01.195Z,16.37
2024-05-09T21:30:38.429Z,16.37
2024-05-09T21:33:11.779Z,16.29
2024-05-09T21:35:44.327Z,16.31
2024-05-09T21:38:14.639Z,16.23
2024-05-09T21:40:43.660Z,16.30
2024-05-09T21:43:31.668Z,16.39
2024-05-09T21:45:59.019Z,16.41
2024-05-09T21:48:26.754Z,16.38
2024-05-09T21:50:56.728Z,16.28
2024-05-09T21:53:24.517Z,16.36
2024-05-09T21:55:51.765Z,16.39
2024-05-09T21:58:19.773Z,16.45
2024-05-09T22:00:47.495Z,16.35
2024-05-09T22:03:15.582Z,16.27
2024-05-09T22:05:45.053Z,16.35
2024-05-09T22:08:16.186Z,16.25
2024-05-09T22:10:44.059Z,16.33
2024-05-09T22:13:11.965Z,16.41
2024-05-09T22:15:40.541Z,16.37
2024-05-09T22:18:10.490Z,16.39
2024-05-09T22:20:44.869Z,16.43
2024-05-09T22:23:16.590Z,16.48
2024-05-09T22:25:44.138Z,16.46
2024-05-09T22:28:14.850Z,16.42
2024-05-09T22:30:44.026Z,16.46
2024-05-09T22:33:12.765Z,16.46
2024-05-09T22:35:41.127Z,16.31
2024-05-09T22:38:09.094Z,16.30
2024-05-09T22:40:47.121Z,16.29
2024-05-09T22:43:19.516Z,16.24
2024-05-09T22:45:47.747Z,16.24
2024-05-09T22:48:15.997Z,16.27
2024-05-09T22:50:44.971Z,16.31
2024-05-09T22:53:12.649Z,16.26
2024-05-09T22:55:42.846Z,16.20
2024-05-09T22:58:10.549Z,16.17
2024-05-09T23:00:38.289Z,16.12
2024-05-09T23:03:06.367Z,16.17
2024-05-09T23:05:33.960Z,16.23
2024-05-09T23:08:02.928Z,16.23
2024-05-09T23:10:36.008Z,16.23
2024-05-09T23:13:08.820Z,15.93
2024-05-09T23:15:37.491Z,16.22
2024-05-09T23:18:06.103Z,16.24
2024-05-09T23:20:38.136Z,16.17
2024-05-09T23:23:07.860Z,16.17
2024-05-09T23:25:36.321Z,16.21
2024-05-09T23:28:04.502Z,16.29
2024-05-09T23:30:38.813Z,16.32
2024-05-09T23:33:11.619Z,16.32
2024-05-09T23:35:40.959Z,16.31
2024-05-09T23:38:09.017Z,16.27
2024-05-09T23:40:39.800Z,16.27
2024-05-09T23:43:09.527Z,16.28
2024-05-09T23:45:40.006Z,16.30
2024-05-09T23:48:08.722Z,16.33
2024-05-09T23:50:38.368Z,16.39
2024-05-09T23:53:09.328Z,16.41
2024-05-09T23:55:37.729Z,16.42
2024-05-09T23:58:06.399Z,16.36
